Time;durP1;ratioP1;P1;durP2;ratioP2;P2;SDS_P1;SDS_P2;PMS_P1;PMS_P2;Temp;Humidity;BMP_temperature;BMP_pressure;BME280_temperature;BME280_humidity;BME280_pressure;Samples;Min_cycle;Max_cycle;Signal;HPM_P1;HPM_P2
2023/05/29 00:00:33;;;;;;;15.05;2.55;;;10.80;99.90;;;;;;5100145;28;20384;-79
2023/05/29 00:02:59;;;;;;;9.55;2.65;;;10.70;99.90;;;;;;5095873;28;20141;-79
2023/05/29 00:05:24;;;;;;;11.35;2.13;;;10.70;99.90;;;;;;5104466;28;20027;-79
2023/05/29 00:07:50;;;;;;;10.35;2.28;;;10.70;99.90;;;;;;5096414;28;20048;-79
2023/05/29 00:10:16;;;;;;;11.05;2.40;;;10.60;99.90;;;;;;5099880;28;20396;-79
2023/05/29 00:12:42;;;;;;;8.75;1.95;;;10.70;99.90;;;;;;5093403;28;20419;-79
2023/05/29 00:15:10;;;;;;;9.88;2.60;;;10.70;99.90;;;;;;5097237;28;20040;-79
2023/05/29 00:17:36;;;;;;;12.55;2.10;;;10.70;99.90;;;;;;5093880;28;20036;-79
2023/05/29 00:20:06;;;;;;;10.85;2.25;;;10.70;99.90;;;;;;5097991;28;20168;-79
2023/05/29 00:22:32;;;;;;;9.45;1.83;;;10.70;99.90;;;;;;5102162;28;20040;-79
2023/05/29 00:24:58;;;;;;;11.68;2.40;;;10.70;99.90;;;;;;5096936;28;20636;-79
2023/05/29 00:27:23;;;;;;;8.30;1.60;;;10.70;99.90;;;;;;5092557;28;20042;-79
2023/05/29 00:29:49;;;;;;;11.60;1.88;;;10.60;99.90;;;;;;5094018;28;20032;-80
2023/05/29 00:32:14;;;;;;;9.57;2.33;;;10.60;99.90;;;;;;5089747;28;20032;-79
2023/05/29 00:34:40;;;;;;;9.75;2.03;;;10.60;99.90;;;;;;5089613;28;20115;-80
2023/05/29 00:37:06;;;;;;;10.32;1.83;;;10.50;99.90;;;;;;5093665;28;20539;-79
2023/05/29 00:39:31;;;;;;;8.52;2.17;;;10.50;99.90;;;;;;5096241;28;20086;-79
2023/05/29 00:41:57;;;;;;;9.75;2.38;;;10.40;99.90;;;;;;5092817;28;20036;-79
2023/05/29 00:44:38;;;;;;;7.60;1.85;;;10.40;99.90;;;;;;5092674;28;20028;-79
2023/05/29 00:48:00;;;;;;;9.60;2.10;;;10.40;99.90;;;;;;5097533;28;20070;-79
2023/05/29 01:12:54;;;;;;;6.95;1.90;;;10.10;99.90;;;;;;5110905;28;20399;-79
2023/05/29 01:15:46;;;;;;;8.65;2.10;;;10.20;99.90;;;;;;5107653;27;20403;-79
2023/05/29 01:18:40;;;;;;;7.40;1.73;;;10.10;99.90;;;;;;5105193;28;20048;-79
2023/05/29 01:21:15;;;;;;;7.97;2.05;;;10.10;99.90;;;;;;5099544;28;20047;-79
2023/05/29 01:24:03;;;;;;;10.60;2.22;;;10.10;99.90;;;;;;5095286;28;20040;-78
2023/05/29 01:26:43;;;;;;;8.13;1.80;;;10.10;99.90;;;;;;5098611;28;20085;-79
2023/05/29 01:29:17;;;;;;;10.95;2.17;;;10.00;99.90;;;;;;5078248;28;20511;-78
2023/05/29 01:57:55;;;;;;;10.75;2.17;;;10.00;99.90;;;;;;5098837;28;20046;-78
2023/05/29 02:00:21;;;;;;;8.02;1.77;;;9.90;99.90;;;;;;5100776;27;20032;-79
2023/05/29 02:02:46;;;;;;;14.50;2.63;;;10.00;99.90;;;;;;5099578;28;20059;-79
2023/05/29 02:05:12;;;;;;;11.63;2.40;;;10.00;99.90;;;;;;5091833;28;20388;-79
2023/05/29 02:07:38;;;;;;;10.35;2.60;;;10.10;99.90;;;;;;5095238;28;20566;-79
2023/05/29 02:10:05;;;;;;;8.38;1.83;;;10.10;99.90;;;;;;5096389;28;20081;-78
2023/05/29 02:12:31;;;;;;;14.32;2.70;;;10.10;99.90;;;;;;5110863;27;20056;-79
2023/05/29 02:14:56;;;;;;;11.40;2.78;;;10.00;99.90;;;;;;5093981;27;20085;-79
2023/05/29 02:17:22;;;;;;;9.23;2.15;;;10.00;99.90;;;;;;5096960;28;20046;-79
2023/05/29 02:19:48;;;;;;;10.00;2.30;;;10.00;99.90;;;;;;5095390;28;20067;-79
2023/05/29 02:22:13;;;;;;;12.25;2.97;;;10.00;99.90;;;;;;5098285;28;20078;-78
2023/05/29 02:24:39;;;;;;;11.68;2.50;;;9.90;99.90;;;;;;5098718;28;20036;-79
2023/05/29 02:27:05;;;;;;;9.45;2.10;;;9.90;99.90;;;;;;5094113;28;20032;-79
2023/05/29 02:29:30;;;;;;;8.73;2.63;;;9.90;99.90;;;;;;5095444;28;20036;-78
2023/05/29 02:31:56;;;;;;;13.55;2.50;;;9.80;99.90;;;;;;5093176;28;20097;-78
2023/05/29 02:34:24;;;;;;;9.38;1.83;;;9.70;99.90;;;;;;5074252;28;20514;-78
2023/05/29 02:36:54;;;;;;;13.45;2.78;;;9.60;99.90;;;;;;5109086;28;20050;-79
2023/05/29 02:39:20;;;;;;;11.43;2.40;;;9.60;99.90;;;;;;5104816;28;20115;-79
2023/05/29 02:41:45;;;;;;;10.70;2.25;;;9.60;99.90;;;;;;5105570;28;20044;-79
2023/05/29 02:44:11;;;;;;;13.70;3.03;;;9.60;99.90;;;;;;5100617;28;20028;-78
2023/05/29 02:46:37;;;;;;;12.00;2.50;;;9.60;99.90;;;;;;5099041;28;20141;-78
2023/05/29 02:49:02;;;;;;;7.90;1.92;;;9.50;99.90;;;;;;5105796;28;20032;-78
2023/05/29 02:51:28;;;;;;;8.95;2.40;;;9.50;99.90;;;;;;5104963;28;20040;-79
2023/05/29 02:53:53;;;;;;;10.15;2.42;;;9.50;99.90;;;;;;5104336;28;20040;-79
2023/05/29 02:56:23;;;;;;;11.18;2.40;;;9.50;99.90;;;;;;5105822;28;20111;-78
2023/05/29 02:58:51;;;;;;;10.68;2.53;;;9.50;99.90;;;;;;5087249;28;20130;-78
2023/05/29 03:01:18;;;;;;;10.70;2.45;;;9.50;99.90;;;;;;5081868;28;20028;-78
2023/05/29 03:03:43;;;;;;;10.10;2.55;;;9.40;99.90;;;;;;5104566;28;20062;-80
2023/05/29 03:06:09;;;;;;;8.48;2.45;;;9.50;99.90;;;;;;5107138;28;20040;-79
2023/05/29 03:08:40;;;;;;;7.63;2.30;;;9.50;99.90;;;;;;5106551;28;20047;-78
2023/05/29 03:11:10;;;;;;;8.77;2.40;;;9.50;99.90;;;;;;5101673;28;20036;-79
2023/05/29 03:13:36;;;;;;;9.32;2.28;;;9.60;99.90;;;;;;5107045;28;20414;-79
2023/05/29 03:16:02;;;;;;;10.70;2.60;;;9.70;99.90;;;;;;5088170;28;20115;-78
2023/05/29 03:18:27;;;;;;;8.70;1.90;;;9.80;99.90;;;;;;5102235;28;20104;-78
2023/05/29 03:20:53;;;;;;;9.52;2.35;;;9.80;99.90;;;;;;5102194;28;20044;-78
2023/05/29 03:23:19;;;;;;;15.05;2.33;;;9.80;99.90;;;;;;5106251;28;20039;-79
2023/05/29 03:25:45;;;;;;;15.27;2.47;;;9.90;99.90;;;;;;5104534;28;20036;-78
2023/05/29 03:28:10;;;;;;;11.77;2.40;;;9.90;99.90;;;;;;5108381;28;20086;-78
2023/05/29 03:30:36;;;;;;;11.15;2.67;;;9.90;99.90;;;;;;5106531;28;20054;-78
2023/05/29 03:33:03;;;;;;;6.30;2.00;;;9.90;99.90;;;;;;5083052;28;20036;-78
2023/05/29 03:35:29;;;;;;;11.43;2.78;;;9.90;99.90;;;;;;5105177;28;20149;-78
2023/05/29 03:37:55;;;;;;;8.30;3.13;;;9.90;99.90;;;;;;5105574;28;20039;-79
2023/05/29 03:40:21;;;;;;;9.77;2.15;;;9.90;99.90;;;;;;5087932;28;20038;-79
2023/05/29 03:42:46;;;;;;;10.68;2.30;;;10.00;99.90;;;;;;5103082;28;20048;-78
2023/05/29 03:45:12;;;;;;;8.93;2.15;;;10.00;99.90;;;;;;5107021;28;20040;-78
2023/05/29 03:47:37;;;;;;;9.43;2.30;;;10.10;99.90;;;;;;5102647;28;20051;-79
2023/05/29 03:50:03;;;;;;;12.45;2.40;;;10.10;99.90;;;;;;5105805;28;20043;-79
2023/05/29 03:52:29;;;;;;;9.20;2.58;;;10.20;99.90;;;;;;5107177;28;20407;-79
2023/05/29 03:54:55;;;;;;;12.20;2.20;;;10.20;99.90;;;;;;5108224;28;20035;-79
2023/05/29 03:57:20;;;;;;;10.52;2.22;;;10.20;99.90;;;;;;5105352;28;20081;-79
2023/05/29 03:59:46;;;;;;;11.93;3.42;;;10.20;99.90;;;;;;5107990;28;20039;-79
2023/05/29 04:02:11;;;;;;;5.63;1.92;;;10.20;99.90;;;;;;5106333;28;20053;-79
2023/05/29 04:04:37;;;;;;;13.20;2.17;;;10.20;99.90;;;;;;5104177;28;20072;-79
2023/05/29 04:07:03;;;;;;;12.80;2.97;;;10.30;99.90;;;;;;5072782;28;20044;-79
2023/05/29 04:09:29;;;;;;;11.82;1.83;;;10.30;99.90;;;;;;5104878;28;20127;-78
2023/05/29 04:11:55;;;;;;;6.68;1.90;;;10.20;99.90;;;;;;5102518;28;20126;-79
2023/05/29 04:14:20;;;;;;;9.88;2.22;;;10.20;99.90;;;;;;5106069;28;20088;-79
2023/05/29 04:16:46;;;;;;;8.70;2.15;;;10.20;99.90;;;;;;5110238;28;20043;-79
2023/05/29 04:19:11;;;;;;;9.40;2.45;;;10.20;99.90;;;;;;5107102;28;20034;-79
2023/05/29 04:21:37;;;;;;;9.52;2.10;;;10.10;99.90;;;;;;5104017;28;20046;-78
2023/05/29 04:24:02;;;;;;;10.13;2.38;;;10.10;99.90;;;;;;5109431;28;20030;-78
2023/05/29 04:26:28;;;;;;;11.20;2.40;;;10.10;99.90;;;;;;5105783;28;20461;-78
2023/05/29 04:28:57;;;;;;;8.85;2.00;;;10.10;99.90;;;;;;5101526;28;20047;-79
2023/05/29 04:31:24;;;;;;;10.90;2.13;;;10.20;99.90;;;;;;5102950;28;20044;-78
2023/05/29 04:33:54;;;;;;;9.43;2.42;;;10.10;99.90;;;;;;5109435;28;20046;-79
2023/05/29 04:36:26;;;;;;;8.25;2.28;;;10.20;99.90;;;;;;5085774;28;20608;-79
2023/05/29 04:38:54;;;;;;;8.40;2.47;;;10.20;99.90;;;;;;5105336;28;20097;-78
2023/05/29 04:41:23;;;;;;;8.00;2.10;;;10.20;99.90;;;;;;5108458;28;20031;-79
2023/05/29 04:43:50;;;;;;;11.63;2.35;;;10.20;99.90;;;;;;5109446;28;20040;-78
2023/05/29 04:46:16;;;;;;;11.90;2.33;;;10.20;99.90;;;;;;5102920;28;20495;-79
2023/05/29 04:48:42;;;;;;;10.57;2.75;;;10.30;99.90;;;;;;5105835;28;20089;-79
2023/05/29 04:51:10;;;;;;;9.55;2.03;;;10.30;99.90;;;;;;5107958;28;20044;-79
2023/05/29 04:53:40;;;;;;;8.45;2.28;;;10.40;99.90;;;;;;5106818;28;20093;-78
2023/05/29 04:56:06;;;;;;;12.27;2.60;;;10.40;99.90;;;;;;5111345;28;20110;-79
2023/05/29 04:58:31;;;;;;;10.95;2.08;;;10.50;99.90;;;;;;5110743;28;20063;-78
2023/05/29 05:00:57;;;;;;;11.73;2.58;;;10.60;99.90;;;;;;5109520;27;20036;-79
2023/05/29 05:03:25;;;;;;;10.40;2.40;;;10.70;99.90;;;;;;5102417;28;20042;-78
2023/05/29 05:05:51;;;;;;;10.23;2.45;;;10.70;99.90;;;;;;5106962;28;20051;-79
2023/05/29 05:08:17;;;;;;;9.90;2.38;;;10.80;99.90;;;;;;5110631;28;20181;-78
2023/05/29 05:10:43;;;;;;;9.88;2.53;;;10.90;99.90;;;;;;5109687;28;20122;-78
2023/05/29 05:13:08;;;;;;;7.40;2.38;;;11.00;99.90;;;;;;5105285;28;20391;-78
2023/05/29 05:15:34;;;;;;;13.40;2.63;;;11.10;99.90;;;;;;5104868;28;20035;-78
2023/05/29 05:17:59;;;;;;;12.35;2.83;;;11.20;99.90;;;;;;5105655;28;20152;-78
2023/05/29 05:20:25;;;;;;;10.40;2.60;;;11.30;99.90;;;;;;5107197;28;20067;-78
2023/05/29 05:22:51;;;;;;;11.60;2.45;;;11.40;99.90;;;;;;5089651;28;20044;-78
2023/05/29 05:25:17;;;;;;;13.38;3.17;;;11.50;99.90;;;;;;5102575;28;20048;-78
2023/05/29 05:27:42;;;;;;;11.98;2.92;;;11.70;99.90;;;;;;5109104;28;20452;-79
2023/05/29 05:30:08;;;;;;;12.30;2.67;;;11.80;99.90;;;;;;5092074;28;20070;-79
2023/05/29 05:32:35;;;;;;;11.65;3.17;;;11.90;99.90;;;;;;5104357;28;20097;-79
2023/05/29 05:35:00;;;;;;;14.15;3.13;;;12.00;99.90;;;;;;5086151;28;20123;-79
2023/05/29 05:37:26;;;;;;;14.45;3.40;;;12.10;99.90;;;;;;5112905;28;20102;-78
2023/05/29 05:39:53;;;;;;;14.80;3.40;;;12.10;99.90;;;;;;5104309;28;20039;-78
2023/05/29 05:42:19;;;;;;;13.38;3.22;;;12.00;99.90;;;;;;5106229;28;20499;-78
2023/05/29 05:44:45;;;;;;;13.38;3.20;;;12.10;99.90;;;;;;5107229;28;20093;-79
2023/05/29 05:47:10;;;;;;;8.70;2.60;;;12.00;99.90;;;;;;5106759;28;20039;-79
2023/05/29 05:49:36;;;;;;;11.80;3.10;;;12.00;99.90;;;;;;5106358;28;20122;-80
2023/05/29 05:52:01;;;;;;;14.55;2.97;;;12.10;99.90;;;;;;5110683;28;20101;-78
2023/05/29 05:54:27;;;;;;;18.80;3.22;;;12.10;99.90;;;;;;5107104;28;20027;-77
2023/05/29 05:56:52;;;;;;;11.82;2.97;;;12.10;99.90;;;;;;5098268;28;20032;-78
2023/05/29 05:59:18;;;;;;;11.10;2.78;;;12.10;99.90;;;;;;5099383;28;20036;-79
2023/05/29 06:01:44;;;;;;;10.75;2.70;;;12.20;99.90;;;;;;5104744;28;20126;-79
2023/05/29 06:04:09;;;;;;;11.25;3.58;;;12.20;99.90;;;;;;5100899;28;20039;-78
2023/05/29 06:06:35;;;;;;;11.65;3.28;;;12.20;99.90;;;;;;5097747;28;20039;-79
2023/05/29 06:09:01;;;;;;;10.40;2.63;;;12.30;99.90;;;;;;5096965;28;20449;-79
2023/05/29 06:11:26;;;;;;;12.48;2.90;;;12.30;99.90;;;;;;5102717;28;20515;-78
2023/05/29 06:13:53;;;;;;;16.90;3.15;;;12.20;99.90;;;;;;5107831;28;20124;-79
2023/05/29 06:16:19;;;;;;;11.73;3.00;;;12.10;99.90;;;;;;5102973;28;20040;-77
2023/05/29 06:18:44;;;;;;;15.25;3.20;;;12.10;99.90;;;;;;5101509;28;20039;-77
2023/05/29 06:21:12;;;;;;;14.98;3.42;;;12.10;99.90;;;;;;5098733;28;20031;-77
2023/05/29 06:23:38;;;;;;;11.98;2.70;;;12.20;99.90;;;;;;5099598;28;20700;-79
2023/05/29 06:26:03;;;;;;;16.77;3.33;;;12.20;99.90;;;;;;5103299;28;20115;-79
2023/05/29 06:28:30;;;;;;;13.77;3.08;;;12.30;99.90;;;;;;5108151;28;20037;-80
2023/05/29 06:30:56;;;;;;;13.25;3.47;;;12.30;99.90;;;;;;5084748;28;20043;-80
2023/05/29 06:33:21;;;;;;;12.07;3.08;;;12.30;99.90;;;;;;5111584;28;20105;-80
2023/05/29 06:35:47;;;;;;;13.77;2.85;;;12.20;99.90;;;;;;5099646;28;20073;-80
2023/05/29 06:38:16;;;;;;;10.75;3.00;;;12.30;99.90;;;;;;5081901;28;20418;-80
2023/05/29 06:40:42;;;;;;;13.30;2.90;;;12.50;99.90;;;;;;5096552;28;20057;-80
2023/05/29 06:43:09;;;;;;;17.17;3.40;;;12.50;99.90;;;;;;5087643;28;20045;-79
2023/05/29 06:45:34;;;;;;;15.57;3.25;;;12.50;99.90;;;;;;5109595;28;20086;-80
2023/05/29 06:48:00;;;;;;;15.00;2.90;;;12.60;99.90;;;;;;5079300;28;20068;-79
2023/05/29 06:50:26;;;;;;;11.50;2.88;;;12.80;99.90;;;;;;5105963;28;20032;-80
2023/05/29 06:52:51;;;;;;;13.48;2.95;;;12.90;99.90;;;;;;5111075;28;20414;-80
2023/05/29 06:55:17;;;;;;;16.27;3.20;;;12.90;99.90;;;;;;5108084;28;20060;-80
2023/05/29 06:57:42;;;;;;;15.00;2.90;;;13.00;99.90;;;;;;5109436;27;20066;-81
2023/05/29 07:00:10;;;;;;;14.95;4.03;;;13.00;99.90;;;;;;5099320;28;20036;-80
2023/05/29 07:02:36;;;;;;;16.90;3.75;;;13.10;99.90;;;;;;5098203;28;20067;-80
2023/05/29 07:05:02;;;;;;;12.98;2.72;;;13.00;99.90;;;;;;5103887;28;20462;-78
2023/05/29 07:07:27;;;;;;;23.20;3.55;;;13.10;99.90;;;;;;5099705;28;20038;-80
2023/05/29 07:09:53;;;;;;;16.42;3.75;;;13.10;99.90;;;;;;5095722;28;20115;-81
2023/05/29 07:12:18;;;;;;;13.80;3.22;;;12.90;99.90;;;;;;5092860;28;20032;-80
2023/05/29 07:14:44;;;;;;;15.20;3.22;;;13.10;99.90;;;;;;5082875;28;20036;-79
2023/05/29 07:17:10;;;;;;;17.90;3.70;;;13.10;99.90;;;;;;5104866;28;20038;-81
2023/05/29 07:19:35;;;;;;;13.18;2.92;;;13.20;99.90;;;;;;5104744;28;20115;-80
2023/05/29 07:22:01;;;;;;;9.18;2.95;;;13.30;99.90;;;;;;5101159;28;20118;-80
2023/05/29 07:24:26;;;;;;;19.63;3.50;;;13.40;99.90;;;;;;5101766;28;20035;-80
2023/05/29 07:26:52;;;;;;;10.27;2.72;;;13.50;99.90;;;;;;5108865;28;20380;-80
2023/05/29 07:29:20;;;;;;;15.65;3.50;;;13.60;99.90;;;;;;5096395;28;20434;-81
2023/05/29 07:31:46;;;;;;;15.60;3.33;;;13.80;99.90;;;;;;5101586;28;20068;-79
2023/05/29 07:34:12;;;;;;;13.27;3.05;;;13.90;99.90;;;;;;5096028;28;20074;-79
2023/05/29 07:37:06;;;;;;;12.68;3.33;;;14.00;99.90;;;;;;5105875;28;20577;-80
2023/05/29 07:39:33;;;;;;;13.60;3.47;;;14.10;99.90;;;;;;5106970;28;20118;-81
2023/05/29 07:42:01;;;;;;;15.23;3.60;;;14.20;99.90;;;;;;5109224;27;20051;-79
2023/05/29 07:44:26;;;;;;;15.75;3.67;;;14.30;99.90;;;;;;5083219;28;20067;-79
2023/05/29 07:46:52;;;;;;;13.50;2.88;;;14.50;99.90;;;;;;5103856;28;20044;-80
2023/05/29 07:49:19;;;;;;;15.02;4.18;;;14.70;99.90;;;;;;5106296;28;20040;-79
2023/05/29 07:51:44;;;;;;;12.45;3.17;;;14.70;99.90;;;;;;5082598;28;20040;-81
2023/05/29 07:54:10;;;;;;;19.33;4.05;;;14.80;99.90;;;;;;5098341;28;20040;-81
2023/05/29 07:56:37;;;;;;;17.23;3.72;;;15.00;99.90;;;;;;5108312;28;20039;-80
2023/05/29 07:59:03;;;;;;;15.30;3.47;;;15.00;99.90;;;;;;5111439;28;20057;-77
2023/05/29 08:01:28;;;;;;;11.55;3.13;;;14.90;99.90;;;;;;5098386;28;20036;-81
2023/05/29 08:03:54;;;;;;;16.15;3.03;;;14.40;99.90;;;;;;5108579;28;20042;-81
2023/05/29 08:06:20;;;;;;;11.13;2.90;;;14.50;99.90;;;;;;5108712;28;20044;-80
2023/05/29 08:08:46;;;;;;;16.58;3.20;;;14.60;99.90;;;;;;5106923;28;20611;-81
2023/05/29 08:11:12;;;;;;;20.00;3.47;;;14.70;99.90;;;;;;5104297;28;20502;-80
2023/05/29 08:13:37;;;;;;;13.20;3.10;;;14.90;99.90;;;;;;5095062;28;20036;-81
2023/05/29 08:16:03;;;;;;;12.75;2.78;;;15.10;99.90;;;;;;5114037;28;20039;-81
2023/05/29 08:18:31;;;;;;;14.25;3.88;;;15.10;99.90;;;;;;5110063;27;20027;-81
2023/05/29 08:20:56;;;;;;;16.17;3.50;;;15.30;99.90;;;;;;5106220;28;20084;-81
2023/05/29 08:23:22;;;;;;;14.77;3.50;;;15.20;99.90;;;;;;5108704;27;20684;-80
2023/05/29 08:25:48;;;;;;;17.45;3.58;;;15.10;99.90;;;;;;5116638;28;20498;-78
2023/05/29 08:28:14;;;;;;;16.25;3.30;;;15.00;99.90;;;;;;5108003;28;20039;-79
2023/05/29 08:30:40;;;;;;;12.15;3.30;;;14.80;99.90;;;;;;5111358;28;20058;-79
2023/05/29 08:33:06;;;;;;;19.17;3.75;;;15.00;99.90;;;;;;5090983;28;20035;-80
2023/05/29 08:35:32;;;;;;;13.45;3.08;;;15.10;99.90;;;;;;5077346;28;20388;-79
2023/05/29 08:37:58;;;;;;;13.30;2.90;;;15.20;99.90;;;;;;5093546;28;20032;-80
2023/05/29 08:40:24;;;;;;;13.80;2.90;;;15.10;99.90;;;;;;5099855;28;20031;-80
2023/05/29 08:42:52;;;;;;;14.65;2.92;;;15.10;99.90;;;;;;5112256;28;20035;-79
2023/05/29 08:45:21;;;;;;;13.27;2.83;;;15.00;99.90;;;;;;5103735;28;20032;-79
2023/05/29 08:47:51;;;;;;;10.50;2.83;;;15.00;99.90;;;;;;5108132;28;20123;-79
2023/05/29 08:50:19;;;;;;;16.80;3.13;;;15.00;99.90;;;;;;5104390;28;20028;-78
2023/05/29 08:52:44;;;;;;;18.00;3.42;;;14.80;99.90;;;;;;5102594;27;20032;-78
2023/05/29 08:55:10;;;;;;;15.70;3.50;;;14.60;99.90;;;;;;5100248;28;20118;-78
2023/05/29 08:57:38;;;;;;;16.95;3.03;;;14.70;99.90;;;;;;5114946;27;20566;-79
2023/05/29 09:00:12;;;;;;;16.95;3.30;;;14.80;99.90;;;;;;5086582;28;20036;-77
2023/05/29 09:02:39;;;;;;;12.30;2.78;;;14.80;99.90;;;;;;5095549;28;20040;-77
2023/05/29 09:05:06;;;;;;;16.67;3.78;;;14.60;99.90;;;;;;5099714;28;20031;-77
2023/05/29 09:07:32;;;;;;;15.85;3.00;;;14.50;99.90;;;;;;5102708;28;20462;-79
2023/05/29 09:09:58;;;;;;;16.92;3.70;;;14.70;99.90;;;;;;5109793;28;20556;-79
2023/05/29 09:12:25;;;;;;;15.55;3.67;;;14.80;99.90;;;;;;5083025;28;20499;-78
2023/05/29 09:14:50;;;;;;;14.43;3.45;;;14.80;99.90;;;;;;5101774;28;20061;-77
2023/05/29 09:17:16;;;;;;;20.77;5.70;;;15.00;99.90;;;;;;5099446;28;20115;-78
2023/05/29 09:19:42;;;;;;;17.73;3.60;;;15.10;99.90;;;;;;5093223;28;20042;-79
2023/05/29 09:22:14;;;;;;;14.68;3.80;;;15.20;99.90;;;;;;5077753;28;20317;-79
2023/05/29 09:24:41;;;;;;;17.95;4.78;;;15.30;99.90;;;;;;5075888;28;20068;-79
2023/05/29 09:27:08;;;;;;;14.02;3.22;;;15.30;99.90;;;;;;5107488;28;20054;-76
2023/05/29 09:29:42;;;;;;;13.35;2.90;;;15.30;99.90;;;;;;5084193;28;20055;-77
2023/05/29 09:32:09;;;;;;;16.38;3.55;;;15.30;99.90;;;;;;5098801;28;20040;-78
2023/05/29 09:34:35;;;;;;;15.95;3.38;;;15.40;99.90;;;;;;5106478;28;20445;-77
2023/05/29 09:37:08;;;;;;;15.57;3.25;;;15.50;99.90;;;;;;5108354;28;20036;-77
2023/05/29 09:39:51;;;;;;;16.13;3.60;;;15.80;99.90;;;;;;5091439;28;20040;-77
2023/05/29 09:42:17;;;;;;;16.35;4.72;;;15.60;99.90;;;;;;5106671;28;20036;-78
2023/05/29 09:44:46;;;;;;;17.40;5.47;;;15.90;99.90;;;;;;5098550;27;20056;-78
2023/05/29 09:47:16;;;;;;;15.80;5.57;;;16.10;99.90;;;;;;5085555;28;20035;-78
2023/05/29 09:49:43;;;;;;;22.33;6.47;;;16.20;99.90;;;;;;5081870;28;20089;-78
2023/05/29 09:52:15;;;;;;;14.75;3.95;;;16.30;99.90;;;;;;5100352;28;20036;-77
2023/05/29 09:54:45;;;;;;;20.70;6.65;;;16.30;99.90;;;;;;5089467;28;20047;-78
2023/05/29 09:57:13;;;;;;;16.55;6.88;;;16.20;99.90;;;;;;5098626;28;20119;-79
2023/05/29 09:59:40;;;;;;;17.98;8.10;;;16.10;99.90;;;;;;5110054;28;20518;-78
2023/05/29 10:02:11;;;;;;;21.65;5.35;;;16.20;99.90;;;;;;5103855;28;20521;-79
2023/05/29 10:04:37;;;;;;;20.45;4.90;;;16.10;99.90;;;;;;5103064;28;20423;-77
2023/05/29 10:07:10;;;;;;;14.90;5.63;;;16.20;99.90;;;;;;5106533;28;20043;-78
2023/05/29 10:09:41;;;;;;;16.17;4.63;;;16.50;99.90;;;;;;5094949;27;20039;-77
2023/05/29 10:12:08;;;;;;;18.48;3.55;;;16.60;99.90;;;;;;5104440;28;20093;-76
2023/05/29 10:14:35;;;;;;;20.92;7.90;;;16.60;99.90;;;;;;5106241;28;20419;-77
2023/05/29 10:17:06;;;;;;;15.68;3.88;;;16.40;99.90;;;;;;5110990;28;20388;-77
2023/05/29 10:19:33;;;;;;;13.07;3.95;;;16.70;99.90;;;;;;5097577;28;20048;-76
2023/05/29 10:22:01;;;;;;;16.60;4.35;;;16.60;99.90;;;;;;5111258;27;20038;-75
2023/05/29 10:24:28;;;;;;;12.68;3.35;;;16.60;99.90;;;;;;5103310;28;20038;-77
2023/05/29 10:26:55;;;;;;;16.17;3.28;;;16.70;99.90;;;;;;5109296;27;20043;-75
2023/05/29 10:29:36;;;;;;;14.30;3.55;;;16.30;99.90;;;;;;5107983;28;20039;-76
2023/05/29 10:32:08;;;;;;;11.20;2.90;;;16.20;99.90;;;;;;5092201;27;20040;-75
2023/05/29 10:34:56;;;;;;;15.32;3.65;;;15.90;99.90;;;;;;5096934;28;20040;-75
2023/05/29 10:37:37;;;;;;;16.30;3.55;;;16.20;99.90;;;;;;5097345;28;20671;-76
2023/05/29 10:40:12;;;;;;;14.25;2.95;;;16.30;99.90;;;;;;5103003;27;21477;-77
2023/05/29 10:42:52;;;;;;;11.52;3.10;;;16.20;99.90;;;;;;5078718;28;20039;-76
2023/05/29 10:45:30;;;;;;;14.73;3.25;;;16.20;99.90;;;;;;5102483;27;20126;-77
2023/05/29 10:47:56;;;;;;;14.13;4.10;;;16.30;99.90;;;;;;5098557;28;20043;-76
2023/05/29 10:50:42;;;;;;;18.70;3.70;;;16.30;99.90;;;;;;5105202;28;20043;-77
2023/05/29 10:53:14;;;;;;;18.75;3.88;;;16.50;99.90;;;;;;5095686;28;20129;-77
2023/05/29 10:55:41;;;;;;;18.23;3.30;;;16.60;99.90;;;;;;5093285;28;20087;-76
2023/05/29 10:58:13;;;;;;;9.38;3.00;;;16.90;99.90;;;;;;5089898;28;20498;-76
2023/05/29 11:00:42;;;;;;;15.40;3.13;;;17.20;99.90;;;;;;5097109;28;20042;-76
2023/05/29 11:03:08;;;;;;;13.70;2.65;;;16.70;99.90;;;;;;5100941;28;20163;-76
2023/05/29 11:05:34;;;;;;;12.38;3.15;;;16.90;99.90;;;;;;5090884;28;20036;-76
2023/05/29 11:08:03;;;;;;;13.13;3.00;;;17.00;99.90;;;;;;5095923;28;20032;-75
2023/05/29 11:10:43;;;;;;;14.18;3.28;;;16.90;99.90;;;;;;5095515;28;20040;-75
2023/05/29 11:13:09;;;;;;;10.35;3.08;;;16.70;99.90;;;;;;5083033;28;20066;-75
2023/05/29 11:15:36;;;;;;;16.15;3.20;;;16.70;99.90;;;;;;5101150;28;20467;-77
2023/05/29 11:18:11;;;;;;;13.43;3.50;;;16.50;99.90;;;;;;5108289;28;20166;-75
2023/05/29 11:20:45;;;;;;;11.60;2.47;;;16.60;99.90;;;;;;5091282;28;20051;-75
2023/05/29 11:23:17;;;;;;;15.27;3.00;;;16.90;99.90;;;;;;5091612;28;20051;-74
2023/05/29 11:25:46;;;;;;;14.40;2.88;;;16.90;99.90;;;;;;5109733;28;20040;-76
2023/05/29 11:28:12;;;;;;;13.52;3.30;;;17.10;99.90;;;;;;5073161;28;20040;-75
2023/05/29 11:30:48;;;;;;;12.90;2.95;;;16.70;99.90;;;;;;5074968;28;20040;-76
2023/05/29 11:33:25;;;;;;;12.80;3.03;;;16.80;99.90;;;;;;5097970;27;20036;-76
2023/05/29 11:35:56;;;;;;;12.98;3.38;;;17.00;99.90;;;;;;5103848;28;20509;-75
2023/05/29 11:38:22;;;;;;;11.60;3.20;;;17.30;99.90;;;;;;5106667;28;20035;-77
2023/05/29 11:40:47;;;;;;;15.80;2.72;;;17.40;99.90;;;;;;5088128;28;20154;-76
2023/05/29 11:43:13;;;;;;;10.05;2.60;;;17.50;99.90;;;;;;5103759;28;20033;-76
2023/05/29 11:45:38;;;;;;;10.43;3.08;;;17.40;99.90;;;;;;5098843;28;20529;-76
2023/05/29 11:48:04;;;;;;;12.15;2.75;;;17.70;99.90;;;;;;5104933;28;20032;-75
2023/05/29 11:50:33;;;;;;;16.15;3.22;;;17.90;99.90;;;;;;5096909;28;20070;-75
2023/05/29 11:53:00;;;;;;;11.52;2.50;;;18.00;99.90;;;;;;5104859;28;20044;-74
2023/05/29 11:55:27;;;;;;;15.20;3.17;;;17.90;99.90;;;;;;5099290;28;20070;-75
2023/05/29 11:58:02;;;;;;;15.77;2.95;;;17.90;99.90;;;;;;5106255;28;20066;-75
2023/05/29 12:00:35;;;;;;;13.32;2.88;;;17.70;99.90;;;;;;5107145;28;20053;-75
2023/05/29 12:03:03;;;;;;;10.48;2.58;;;17.70;99.90;;;;;;5102511;28;20092;-75
2023/05/29 12:05:31;;;;;;;15.13;3.10;;;17.80;99.90;;;;;;5108337;28;20517;-76
2023/05/29 12:07:56;;;;;;;10.70;2.75;;;17.30;99.90;;;;;;5097450;28;20039;-77
2023/05/29 12:10:23;;;;;;;16.88;3.53;;;17.40;99.90;;;;;;5087679;28;20119;-77
2023/05/29 12:12:54;;;;;;;11.93;2.90;;;17.80;99.90;;;;;;5108155;28;20036;-75
2023/05/29 12:15:21;;;;;;;8.20;2.45;;;17.70;99.90;;;;;;5107977;28;20119;-76
2023/05/29 12:17:48;;;;;;;12.75;2.70;;;17.90;99.90;;;;;;5101883;28;20040;-75
2023/05/29 12:20:14;;;;;;;13.98;2.88;;;18.20;99.90;;;;;;5110143;28;20032;-75
2023/05/29 12:22:41;;;;;;;14.13;2.92;;;18.00;99.90;;;;;;5101773;28;20040;-74
2023/05/29 12:25:15;;;;;;;15.73;3.10;;;18.10;99.90;;;;;;5073453;28;20036;-75
2023/05/29 12:27:43;;;;;;;15.93;3.50;;;18.20;99.90;;;;;;5086482;28;20047;-75
2023/05/29 12:30:10;;;;;;;12.35;3.20;;;18.00;99.90;;;;;;5094339;28;20038;-74
2023/05/29 12:32:38;;;;;;;13.90;2.90;;;17.90;99.90;;;;;;5095859;28;20044;-74
2023/05/29 12:35:17;;;;;;;13.80;3.25;;;17.80;99.90;;;;;;5102672;28;20514;-75
2023/05/29 12:37:49;;;;;;;10.80;2.58;;;18.00;99.90;;;;;;5098157;28;20089;-75
2023/05/29 12:40:28;;;;;;;14.80;2.47;;;18.50;99.90;;;;;;5089570;28;20046;-75
2023/05/29 12:43:02;;;;;;;12.95;3.30;;;18.70;99.90;;;;;;5094275;28;20075;-74
2023/05/29 12:45:30;;;;;;;8.38;2.38;;;19.00;99.90;;;;;;5099245;28;20032;-75
2023/05/29 12:48:06;;;;;;;12.43;3.00;;;19.00;99.90;;;;;;5109114;28;20130;-76
2023/05/29 12:50:34;;;;;;;13.43;2.80;;;19.40;99.90;;;;;;5103825;28;20503;-75
2023/05/29 12:53:14;;;;;;;10.32;2.47;;;19.00;99.90;;;;;;5101581;28;20040;-75
2023/05/29 12:55:41;;;;;;;7.82;2.35;;;19.40;99.90;;;;;;5109348;28;20123;-76
2023/05/29 12:58:15;;;;;;;9.50;2.50;;;19.40;99.90;;;;;;5102623;28;20061;-75
2023/05/29 13:00:42;;;;;;;11.93;2.63;;;19.60;99.50;;;;;;5106095;28;20438;-77
2023/05/29 13:03:10;;;;;;;15.57;2.50;;;19.60;99.60;;;;;;5110345;28;20384;-75
2023/05/29 13:05:36;;;;;;;9.45;2.35;;;19.80;99.80;;;;;;5108778;28;20088;-76
2023/05/29 13:08:02;;;;;;;6.78;2.00;;;19.90;99.90;;;;;;5088297;28;20536;-76
2023/05/29 13:10:28;;;;;;;8.75;2.13;;;20.30;99.90;;;;;;5112824;28;20118;-76
2023/05/29 13:12:55;;;;;;;12.52;3.00;;;20.60;99.90;;;;;;5091432;28;20039;-77
2023/05/29 13:15:22;;;;;;;10.05;2.25;;;20.40;99.80;;;;;;5107960;28;20085;-75
2023/05/29 13:17:48;;;;;;;16.77;2.83;;;20.50;99.20;;;;;;5101401;28;20132;-76
2023/05/29 13:20:14;;;;;;;9.27;2.50;;;20.70;99.00;;;;;;5108709;28;20035;-74
2023/05/29 13:22:41;;;;;;;10.07;2.03;;;20.40;98.00;;;;;;5100624;28;20050;-75
2023/05/29 13:25:09;;;;;;;9.75;2.70;;;20.00;98.10;;;;;;5083838;28;20044;-75
2023/05/29 13:27:40;;;;;;;8.70;2.22;;;19.70;97.50;;;;;;5110860;28;20048;-73
2023/05/29 13:30:07;;;;;;;10.70;2.40;;;19.60;97.10;;;;;;5099077;28;20298;-76
2023/05/29 13:32:33;;;;;;;11.55;2.20;;;19.20;96.70;;;;;;5092608;28;20039;-75